Terminal Aerodrome Forecast
Issued by NWS Tuscon, AZ

Home | Current Version | Previous Version | Text Only | Print | Product List | Glossary On
Versions: 1 2 3 4 5 6 7 8 9 10 11 12 13 14 15 16 17 18 19 20
078
FTUS45 KTWC 272326
TAFDUG
TAF
KDUG 272326Z 2800/2824 34012G22KT P6SM SCT110
     FM280300 34011KT P6SM FEW110
     FM281100 12006KT P6SM FEW110
     FM281800 26012G18KT P6SM SKC
     FM282100 28018G25KT P6SM SKC=

USA.gov is the U.S. government's official web portal to all federal, state and local government web resources and services.